Time;durP1;ratioP1;P1;durP2;ratioP2;P2;SDS_P1;SDS_P2;PMS_P1;PMS_P2;Temp;Humidity;BMP_temperature;BMP_pressure;BME280_temperature;BME280_humidity;BME280_pressure;Samples;Min_cycle;Max_cycle;Signal;HPM_P1;HPM_P2
2022/01/23 00:00:31;;;;;;;30.92;18.12;;;;;;;-1.91;69.01;100550.83;1726550;81;21381;-61
2022/01/23 00:03:34;;;;;;;30.25;19.40;;;;;;;-1.85;68.74;100555.34;1725692;83;21358;-61
2022/01/23 00:06:39;;;;;;;39.18;20.95;;;;;;;-1.85;68.27;100555.34;1725957;83;21216;-61
2022/01/23 00:09:45;;;;;;;42.75;24.70;;;;;;;-1.86;68.17;100564.36;1725846;83;21240;-61
2022/01/23 00:12:55;;;;;;;39.23;23.40;;;;;;;-1.93;67.75;100563.46;1725175;83;22053;-61
2022/01/23 00:19:26;;;;;;;37.00;20.48;;;;;;;-2.06;67.62;100571.89;1792751;80;21343;-61
2022/01/23 00:22:40;;;;;;;34.23;19.07;;;;;;;-2.06;67.90;100582.11;1792294;80;21773;-61
2022/01/23 00:32:28;;;;;;;33.65;17.35;;;;;;;-2.12;67.92;100570.42;1793441;80;21319;-61
2022/01/23 00:35:39;;;;;;;29.30;15.95;;;;;;;-2.15;67.82;100577.31;1792472;80;21328;-61
2022/01/23 00:38:46;;;;;;;29.57;17.02;;;;;;;-2.21;67.73;100569.64;1788079;80;21391;-61
2022/01/23 00:41:52;;;;;;;50.88;25.80;;;;;;;-2.30;67.74;100576.02;1772993;80;21535;-62
2022/01/23 00:48:29;;;;;;;30.92;17.77;;;;;;;-2.33;68.21;100571.69;1756131;80;21717;-60
2022/01/23 00:51:37;;;;;;;25.20;15.63;;;;;;;-2.32;68.17;100564.05;1771115;80;21228;-62
2022/01/23 00:54:42;;;;;;;27.62;14.55;;;;;;;-2.31;67.95;100557.72;1771640;80;21204;-61
2022/01/23 00:57:47;;;;;;;21.37;13.32;;;;;;;-2.34;67.68;100561.94;1770886;80;21598;-61
2022/01/23 01:00:54;;;;;;;19.75;13.13;;;;;;;-2.39;67.41;100570.71;1771068;80;21217;-61
2022/01/23 01:04:00;;;;;;;23.65;15.03;;;;;;;-2.40;67.27;100569.00;1770721;80;21247;-60
2022/01/23 01:07:05;;;;;;;23.87;15.78;;;;;;;-2.44;67.06;100563.41;1774699;80;21258;-61
2022/01/23 01:10:20;;;;;;;26.27;17.37;;;;;;;-2.58;66.96;100567.38;1768112;81;21208;-61
2022/01/23 01:13:21;;;;;;;24.67;16.70;;;;;;;-2.72;67.14;100567.78;1770281;81;21202;-61
2022/01/23 01:30:53;;;;;;;26.07;16.82;;;;;;;-2.45;68.55;100581.80;1770868;79;21222;-60
2022/01/23 01:33:34;;;;;;;26.75;15.28;;;;;;;-2.37;68.70;100581.34;1760611;80;21355;-60
2022/01/23 01:36:45;;;;;;;27.58;17.65;;;;;;;-2.28;68.82;100586.16;1761952;81;21200;-60
2022/01/23 01:39:42;;;;;;;52.88;31.45;;;;;;;-2.24;68.63;100587.72;1750696;81;21210;-62
2022/01/23 01:42:48;;;;;;;44.90;29.32;;;;;;;-2.31;68.10;100589.89;1770517;80;21197;-62
2022/01/23 01:45:53;;;;;;;38.85;23.45;;;;;;;-2.44;67.83;100591.55;1787961;80;21344;-61
2022/01/23 01:49:01;;;;;;;36.03;21.42;;;;;;;-2.51;68.15;100598.23;1787485;80;21241;-60
2022/01/23 01:52:07;;;;;;;34.65;20.82;;;;;;;-2.49;68.35;100596.31;1787469;80;21757;-60
2022/01/23 01:55:16;;;;;;;30.25;18.32;;;;;;;-2.47;68.29;100594.88;1787643;80;21399;-60
2022/01/23 02:08:30;;;;;;;41.13;24.00;;;;;;;-2.54;67.97;100619.86;1784356;79;21375;-61
2022/01/23 02:15:27;;;;;;;36.03;21.05;;;;;;;-2.47;67.78;100619.87;1775133;80;21360;-60
2022/01/23 02:55:13;;;;;;;39.15;23.30;;;;;;;-1.88;68.18;100665.98;1798879;79;21204;-61
2022/01/23 02:58:21;;;;;;;42.40;25.37;;;;;;;-1.88;68.11;100667.32;1798590;79;21549;-61
2022/01/23 03:01:30;;;;;;;52.60;31.30;;;;;;;-1.90;68.02;100682.17;1798707;79;21729;-61
2022/01/23 03:04:50;;;;;;;49.30;29.25;;;;;;;-1.93;68.04;100679.67;1748492;80;21193;-61
2022/01/23 03:11:15;;;;;;;36.13;24.52;;;;;;;-1.82;68.92;100686.61;1799800;79;21319;-61
2022/01/23 03:28:04;;;;;;;45.80;25.95;;;;;;;-1.34;68.13;100704.73;1799408;79;21173;-61
2022/01/23 03:34:10;;;;;;;31.33;20.57;;;;;;;-1.32;67.86;100717.13;1799404;79;21235;-61
2022/01/23 03:37:16;;;;;;;39.88;21.40;;;;;;;-1.31;67.75;100719.31;1799451;79;21871;-60
2022/01/23 03:40:23;;;;;;;39.48;23.73;;;;;;;-1.40;67.29;100712.70;1798634;78;21248;-60
2022/01/23 03:43:33;;;;;;;44.48;25.60;;;;;;;-1.56;67.38;100724.84;1799283;79;21315;-61
2022/01/23 03:49:53;;;;;;;50.35;27.30;;;;;;;-1.54;67.60;100744.38;1800751;79;21433;-62
2022/01/23 03:53:05;;;;;;;45.85;25.62;;;;;;;-1.56;67.58;100750.34;1799959;79;21856;-62
2022/01/23 03:56:10;;;;;;;39.53;24.45;;;;;;;-1.61;67.51;100751.55;1799509;79;21268;-61
2022/01/23 03:59:16;;;;;;;46.98;25.37;;;;;;;-1.65;67.61;100747.34;1799295;79;21264;-61
2022/01/23 04:02:21;;;;;;;51.58;28.20;;;;;;;-1.70;67.66;100750.77;1799273;79;21224;-62
2022/01/23 04:05:30;;;;;;;40.60;24.37;;;;;;;-1.72;67.92;100753.54;1799104;79;21516;-63
2022/01/23 04:08:37;;;;;;;48.58;25.27;;;;;;;-1.77;67.73;100754.74;1799521;79;21378;-62
2022/01/23 04:11:45;;;;;;;36.25;22.05;;;;;;;-1.80;68.16;100762.98;1799650;79;21177;-62
2022/01/23 04:15:12;;;;;;;46.65;26.82;;;;;;;-1.73;68.41;100761.17;1799087;79;21752;-61
2022/01/23 04:45:40;;;;;;;43.30;25.85;;;;;;;-1.53;68.80;100801.62;1799343;79;21197;-61
2022/01/23 05:05:31;;;;;;;46.00;28.50;;;;;;;-2.11;68.87;100820.17;1799270;79;21414;-61
2022/01/23 05:08:38;;;;;;;;;;;;;;;-2.06;69.11;100811.90;1801576;80;21414;-62
2022/01/23 05:12:06;;;;;;;31.93;21.20;;;;;;;-2.01;69.15;100810.67;1744122;79;20256;-61
2022/01/23 05:15:16;;;;;;;32.23;19.73;;;;;;;-1.99;69.06;100820.84;1798954;79;21888;-61
2022/01/23 05:18:24;;;;;;;28.83;18.40;;;;;;;-2.03;68.99;100829.99;1799076;79;21741;-61
2022/01/23 05:25:14;;;;;;;44.15;24.35;;;;;;;-2.12;69.26;100829.64;1799321;79;21193;-62
2022/01/23 05:28:07;;;;;;;49.23;26.57;;;;;;;-2.09;69.39;100839.73;1799193;79;21398;-63
2022/01/23 05:31:16;;;;;;;46.73;27.93;;;;;;;-2.11;69.22;100846.98;1780878;80;21335;-63
2022/01/23 05:34:25;;;;;;;51.20;27.02;;;;;;;-2.13;69.40;100837.31;1798549;79;21244;-61
2022/01/23 05:37:37;;;;;;;40.25;23.77;;;;;;;-2.09;69.55;100837.52;1798867;79;21808;-61
2022/01/23 05:40:55;;;;;;;62.15;32.83;;;;;;;-2.05;69.56;100850.70;1799391;79;21197;-62
2022/01/23 05:43:53;;;;;;;55.98;29.75;;;;;;;-2.04;69.42;100853.75;1801236;77;21393;-61
2022/01/23 05:46:59;;;;;;;45.12;25.80;;;;;;;-2.03;69.53;100864.86;1799951;79;21528;-62
2022/01/23 05:50:22;;;;;;;43.55;25.05;;;;;;;-1.98;69.53;100864.14;1799389;79;21252;-61
2022/01/23 05:53:47;;;;;;;49.23;28.75;;;;;;;-1.94;69.51;100865.71;1799381;79;21216;-61
2022/01/23 05:56:56;;;;;;;43.15;24.12;;;;;;;-1.88;69.41;100865.36;1799471;79;21177;-62
2022/01/23 06:00:13;;;;;;;58.33;32.58;;;;;;;-1.82;69.26;100865.02;1799436;79;21279;-62
2022/01/23 06:03:21;;;;;;;46.00;26.60;;;;;;;-1.78;69.12;100874.64;1781727;79;21725;-61
2022/01/23 06:06:28;;;;;;;42.75;25.12;;;;;;;-1.76;69.08;100870.53;1799087;79;21220;-61
2022/01/23 06:09:40;;;;;;;37.00;21.05;;;;;;;-1.80;69.00;100877.87;1799371;79;21189;-62
2022/01/23 06:12:45;;;;;;;34.35;21.50;;;;;;;-1.76;69.10;100875.39;1799050;79;21701;-61
2022/01/23 06:15:50;;;;;;;36.35;21.80;;;;;;;-1.71;69.03;100876.00;1799374;79;21173;-62
2022/01/23 06:18:56;;;;;;;38.63;24.30;;;;;;;-1.67;68.97;100884.75;1799321;79;21363;-61
2022/01/23 06:22:16;;;;;;;39.58;23.98;;;;;;;-1.66;68.93;100896.74;1797577;79;21247;-61
2022/01/23 06:25:38;;;;;;;41.58;24.98;;;;;;;-1.71;68.75;100890.77;1797951;79;21350;-62
2022/01/23 06:29:10;;;;;;;41.92;26.10;;;;;;;-1.73;68.84;100897.18;1799408;79;21209;-61
2022/01/23 06:32:15;;;;;;;58.38;35.15;;;;;;;-1.71;68.86;100892.57;1801336;78;21722;-61
2022/01/23 06:35:24;;;;;;;47.30;31.27;;;;;;;-1.77;68.78;100896.95;1801356;79;21182;-61
2022/01/23 06:38:31;;;;;;;48.25;30.80;;;;;;;-1.77;69.09;100899.16;1801281;79;21335;-61
2022/01/23 06:41:36;;;;;;;51.58;31.37;;;;;;;-1.66;69.35;100904.80;1801089;79;21377;-62
2022/01/23 06:45:00;;;;;;;48.00;28.55;;;;;;;-1.52;69.46;100909.36;1804132;79;21257;-62
2022/01/23 06:48:05;;;;;;;39.33;23.22;;;;;;;-1.34;69.39;100915.03;1810262;79;21707;-63
2022/01/23 06:51:14;;;;;;;42.45;23.87;;;;;;;-1.21;69.20;100912.05;1806840;79;21683;-62
2022/01/23 06:54:20;;;;;;;44.70;26.12;;;;;;;-1.07;69.03;100921.97;1805227;79;21454;-61
2022/01/23 06:57:27;;;;;;;51.15;29.00;;;;;;;-0.94;68.94;100922.52;1809626;79;21339;-61
2022/01/23 07:00:35;;;;;;;51.15;28.92;;;;;;;-0.81;68.75;100928.03;1789590;79;21366;-62
2022/01/23 07:03:44;;;;;;;49.20;27.00;;;;;;;-0.70;68.53;100926.91;1808675;79;21189;-62
2022/01/23 07:06:56;;;;;;;54.42;29.55;;;;;;;-0.64;68.32;100930.57;1790788;79;21343;-62
2022/01/23 07:10:12;;;;;;;44.27;25.55;;;;;;;-0.61;67.85;100941.14;1791293;80;21252;-62
2022/01/23 07:13:31;;;;;;;57.10;29.07;;;;;;;-0.64;67.84;100949.39;1791113;79;21288;-61
2022/01/23 07:16:39;;;;;;;56.65;28.70;;;;;;;-0.62;67.73;100960.42;1791380;79;21661;-62
2022/01/23 07:19:48;;;;;;;63.33;30.37;;;;;;;-0.61;67.73;100957.27;1770768;80;21260;-60
2022/01/23 07:22:59;;;;;;;63.52;30.57;;;;;;;-0.56;67.74;100965.45;1790851;80;21477;-62
2022/01/23 07:26:07;;;;;;;59.35;30.72;;;;;;;-0.53;67.69;100963.05;1790871;80;21374;-62
2022/01/23 07:29:18;;;;;;;66.20;35.05;;;;;;;-0.44;67.76;100962.48;1791254;80;21280;-61
2022/01/23 07:32:24;;;;;;;55.23;28.10;;;;;;;-0.36;67.76;100968.27;1790942;80;21338;-62
2022/01/23 07:35:30;;;;;;;64.37;32.73;;;;;;;-0.37;67.76;100967.43;1709427;84;21351;-61
2022/01/23 07:38:35;;;;;;;60.60;28.98;;;;;;;-0.38;67.96;100971.56;1732388;82;21233;-62
2022/01/23 07:41:43;;;;;;;62.80;32.48;;;;;;;-0.41;67.98;100966.33;1706508;84;21217;-62
2022/01/23 07:45:05;;;;;;;63.48;33.20;;;;;;;-0.50;68.00;100979.00;1792865;79;21205;-62
2022/01/23 07:48:25;;;;;;;45.03;23.57;;;;;;;-0.47;68.28;100984.19;1717805;82;21189;-61
2022/01/23 07:51:48;;;;;;;36.70;21.33;;;;;;;-0.36;68.29;100988.44;1736220;82;21205;-61
2022/01/23 07:55:16;;;;;;;37.00;19.75;;;;;;;-0.33;67.91;100994.98;1751539;81;21256;-62
2022/01/23 07:58:38;;;;;;;32.38;18.45;;;;;;;-0.40;67.92;100999.85;1702126;82;22008;-62
2022/01/23 08:01:48;;;;;;;27.58;17.17;;;;;;;-0.33;68.02;101012.46;1760874;81;21229;-62
2022/01/23 08:05:05;;;;;;;29.70;16.75;;;;;;;-0.31;67.76;101015.93;1736266;82;21240;-62
2022/01/23 08:08:15;;;;;;;27.67;17.20;;;;;;;-0.26;67.87;101021.91;1761093;81;21198;-62
2022/01/23 08:11:24;;;;;;;32.17;19.07;;;;;;;-0.13;67.62;101035.86;1736210;82;21780;-62
2022/01/23 08:14:31;;;;;;;37.75;20.08;;;;;;;-0.07;66.75;101035.98;1760509;81;21356;-60
2022/01/23 08:17:38;;;;;;;39.73;21.42;;;;;;;-0.14;66.44;101039.98;1764787;81;21403;-62
2022/01/23 08:20:43;;;;;;;44.63;23.05;;;;;;;-0.19;66.34;101040.77;1742006;81;21216;-61
2022/01/23 08:23:52;;;;;;;45.67;23.20;;;;;;;-0.13;66.27;101048.47;1735575;81;21777;-61
2022/01/23 08:26:59;;;;;;;43.48;23.30;;;;;;;-0.13;66.05;101054.69;1736007;82;21218;-62
2022/01/23 08:30:06;;;;;;;39.83;21.57;;;;;;;-0.08;65.84;101058.48;1760724;80;21355;-62
2022/01/23 08:33:11;;;;;;;44.63;23.45;;;;;;;-0.12;65.54;101069.02;1760561;81;21194;-63
2022/01/23 08:36:16;;;;;;;49.70;25.43;;;;;;;-0.16;65.24;101078.25;1760835;81;21411;-62
2022/01/23 08:39:25;;;;;;;48.20;25.17;;;;;;;-0.18;65.24;101078.81;1760089;80;21395;-61
2022/01/23 08:42:31;;;;;;;43.30;23.75;;;;;;;-0.20;65.06;101077.55;1759932;81;21198;-62
2022/01/23 08:45:36;;;;;;;37.83;20.88;;;;;;;-0.13;65.14;101094.20;1759428;79;21213;-62
2022/01/23 08:48:43;;;;;;;30.35;18.67;;;;;;;-0.03;64.88;101089.52;1759768;81;21343;-62
2022/01/23 08:51:51;;;;;;;34.23;19.87;;;;;;;0.08;64.30;101100.12;1759918;81;21166;-62
2022/01/23 08:54:59;;;;;;;26.30;16.82;;;;;;;-0.02;63.46;101099.81;1740450;81;21220;-61
2022/01/23 08:58:03;;;;;;;31.40;17.73;;;;;;;-0.14;63.14;101106.78;1759860;81;21251;-62
2022/01/23 09:01:11;;;;;;;30.15;18.07;;;;;;;-0.26;62.99;101107.52;1760173;81;21957;-62
2022/01/23 09:04:19;;;;;;;33.65;20.02;;;;;;;-0.36;63.14;101108.13;1760146;80;21735;-61
2022/01/23 09:07:26;;;;;;;32.10;18.92;;;;;;;-0.39;63.16;101110.52;1760221;81;21344;-61
2022/01/23 09:10:41;;;;;;;40.38;22.55;;;;;;;-0.31;63.50;101117.67;1760644;81;21390;-62
2022/01/23 09:16:52;;;;;;;48.48;25.62;;;;;;;-0.30;62.94;101114.48;1760963;81;21399;-63
2022/01/23 09:19:59;;;;;;;34.08;20.52;;;;;;;-0.41;62.52;101122.31;1760779;80;21430;-63
2022/01/23 09:23:06;;;;;;;32.17;18.50;;;;;;;-0.56;62.78;101125.89;1760938;81;21378;-62
2022/01/23 09:26:18;;;;;;;33.33;19.25;;;;;;;-0.51;62.99;101122.47;1760701;81;21209;-62
2022/01/23 09:29:40;;;;;;;38.20;22.48;;;;;;;-0.34;63.24;101125.92;1760152;81;21746;-62
2022/01/23 09:32:43;;;;;;;61.83;27.00;;;;;;;-0.09;63.01;101128.03;1730184;83;21335;-62
2022/01/23 09:35:51;;;;;;;50.50;25.08;;;;;;;0.11;62.64;101125.04;1752542;81;21352;-62
2022/01/23 09:38:57;;;;;;;59.50;27.17;;;;;;;0.04;62.15;101126.35;1760191;81;21206;-62
2022/01/23 09:42:28;;;;;;;37.23;20.43;;;;;;;-0.08;62.02;101123.05;1766077;81;21209;-62
2022/01/23 09:45:34;;;;;;;46.23;22.22;;;;;;;-0.03;62.51;101128.53;1760839;81;21264;-63
2022/01/23 09:48:44;;;;;;;31.55;17.82;;;;;;;-0.01;62.61;101125.75;1748939;82;21685;-62
2022/01/23 09:51:53;;;;;;;34.18;19.75;;;;;;;0.17;62.63;101131.39;1735307;82;21204;-62
2022/01/23 09:55:06;;;;;;;37.33;20.50;;;;;;;0.27;62.36;101133.90;1751694;81;21408;-63
2022/01/23 09:58:07;;;;;;;51.10;23.90;;;;;;;0.28;61.98;101138.34;1735127;82;21729;-62
2022/01/23 10:01:13;;;;;;;42.17;22.22;;;;;;;0.09;61.86;101135.49;1719381;81;21257;-63
2022/01/23 10:04:20;;;;;;;61.28;26.65;;;;;;;0.07;62.23;101142.78;1734323;82;21235;-62
2022/01/23 10:07:30;;;;;;;50.08;23.15;;;;;;;0.11;62.43;101134.46;1747377;82;21277;-63
2022/01/23 10:10:39;;;;;;;49.65;24.77;;;;;;;0.11;62.28;101143.88;1697104;84;21420;-63
2022/01/23 10:13:48;;;;;;;35.35;22.27;;;;;;;0.10;62.35;101139.91;1698074;84;21856;-63
2022/01/23 10:16:55;;;;;;;36.35;21.23;;;;;;;0.05;62.38;101141.53;1750719;82;21233;-62
2022/01/23 10:20:01;;;;;;;36.73;22.27;;;;;;;-0.15;62.38;101144.53;1750984;82;21809;-62
2022/01/23 10:23:08;;;;;;;37.95;21.93;;;;;;;-0.38;62.59;101152.59;1751251;82;21303;-63
2022/01/23 10:26:15;;;;;;;34.63;19.45;;;;;;;-0.52;63.12;101154.33;1784757;80;21347;-63
2022/01/23 10:29:26;;;;;;;31.20;18.35;;;;;;;-0.54;63.62;101154.41;1761620;81;21225;-62
2022/01/23 10:32:31;;;;;;;36.77;21.33;;;;;;;-0.51;63.89;101144.83;1761742;81;21354;-63
2022/01/23 10:35:36;;;;;;;35.63;19.85;;;;;;;-0.51;64.08;101160.11;1761806;81;21354;-62
2022/01/23 10:38:46;;;;;;;38.75;21.75;;;;;;;-0.51;64.13;101169.02;1762104;81;21286;-63
2022/01/23 10:42:11;;;;;;;43.92;27.45;;;;;;;-0.46;64.22;101180.89;1761996;81;21747;-62
2022/01/23 10:48:38;;;;;;;34.92;22.30;;;;;;;-0.25;64.27;101187.25;1775366;79;21307;-62
2022/01/23 10:51:47;;;;;;;48.75;27.35;;;;;;;-0.22;63.95;101189.76;1729621;82;21341;-63
2022/01/23 10:54:53;;;;;;;34.10;19.70;;;;;;;-0.08;64.14;101201.09;1803755;78;21188;-63
2022/01/23 10:58:06;;;;;;;45.98;28.30;;;;;;;0.03;63.74;101207.18;1760082;81;21407;-64
2022/01/23 11:01:17;;;;;;;55.23;31.05;;;;;;;0.04;63.37;101208.44;1831535;78;21331;-62
2022/01/23 11:04:24;;;;;;;54.40;31.80;;;;;;;0.00;63.40;101206.89;1760931;81;21367;-63
2022/01/23 11:07:30;;;;;;;42.73;22.77;;;;;;;-0.06;63.20;101213.95;1830958;78;21383;-63
2022/01/23 11:10:38;;;;;;;44.08;25.50;;;;;;;-0.05;63.62;101209.82;1760277;81;21355;-62
2022/01/23 11:17:26;;;;;;;41.88;26.48;;;;;;;0.32;63.60;101217.96;1831288;77;21308;-63
2022/01/23 11:20:50;;;;;;;;;;;;;;;0.47;63.01;101209.45;1834297;77;21354;-63
2022/01/23 11:24:04;;;;;;;38.33;23.87;;;;;;;0.49;62.53;101219.16;1815115;78;20342;-63
2022/01/23 11:27:10;;;;;;;34.05;20.25;;;;;;;0.46;62.37;101231.47;1831793;77;21327;-63
2022/01/23 11:30:21;;;;;;;36.40;22.77;;;;;;;0.50;62.48;101229.47;1761488;81;21885;-62
2022/01/23 11:33:26;;;;;;;30.50;18.85;;;;;;;0.59;62.29;101240.56;1740961;81;21327;-63
2022/01/23 11:36:35;;;;;;;30.23;18.30;;;;;;;0.72;62.21;101252.34;1737042;82;21856;-62
2022/01/23 11:39:49;;;;;;;31.70;16.97;;;;;;;0.87;61.88;101257.28;1730309;83;21359;-63
2022/01/23 11:53:50;;;;;;;30.27;17.73;;;;;;;1.19;60.83;101266.97;1734161;82;21758;-63
2022/01/23 11:57:02;;;;;;;37.20;21.97;;;;;;;1.32;60.81;101270.14;1744300;82;21240;-64
2022/01/23 12:00:17;;;;;;;34.38;21.17;;;;;;;1.28;60.42;101275.83;1736927;82;21296;-62
2022/01/23 12:03:23;;;;;;;34.43;21.95;;;;;;;1.32;60.56;101275.53;1768258;81;21707;-62
2022/01/23 12:06:28;;;;;;;36.75;22.15;;;;;;;1.29;60.30;101281.13;1771987;79;21507;-62
2022/01/23 12:09:35;;;;;;;39.23;23.80;;;;;;;1.21;60.29;101294.20;1740481;82;21594;-62
2022/01/23 12:12:46;;;;;;;37.15;21.90;;;;;;;0.89;60.39;101294.42;1737474;82;21761;-62
2022/01/23 12:19:29;;;;;;;31.90;19.95;;;;;;;0.39;61.83;101312.72;1797934;79;21576;-62
2022/01/23 12:22:45;;;;;;;38.60;23.85;;;;;;;0.39;62.58;101315.41;1730587;82;21252;-63
2022/01/23 12:25:59;;;;;;;36.30;22.25;;;;;;;0.25;62.92;101336.41;1797848;80;21200;-62
2022/01/23 12:29:17;;;;;;;36.40;21.75;;;;;;;0.21;63.25;101336.68;1730019;82;21272;-62
2022/01/23 12:32:30;;;;;;;34.92;21.73;;;;;;;0.13;63.69;101338.44;1797491;80;21832;-63
2022/01/23 12:35:46;;;;;;;31.75;21.17;;;;;;;0.22;63.92;101352.75;1729681;82;21726;-63
2022/01/23 12:38:57;;;;;;;30.00;19.85;;;;;;;0.24;63.84;101348.12;1798939;78;21200;-62
2022/01/23 12:42:05;;;;;;;28.40;19.32;;;;;;;0.21;64.00;101350.98;1797730;79;21192;-62
2022/01/23 12:45:11;;;;;;;33.42;20.68;;;;;;;0.10;63.99;101356.11;1798301;79;21757;-63
2022/01/23 12:48:43;;;;;;;30.27;19.15;;;;;;;-0.14;64.14;101352.09;1780982;79;21292;-63
2022/01/23 12:51:54;;;;;;;32.42;21.35;;;;;;;-0.24;64.91;101362.98;1810055;77;21180;-63
2022/01/23 12:55:06;;;;;;;32.55;20.57;;;;;;;-0.24;65.01;101371.05;1798014;78;21717;-62
2022/01/23 12:58:19;;;;;;;29.95;18.95;;;;;;;-0.33;65.16;101368.84;1797997;79;21363;-62
2022/01/23 13:01:28;;;;;;;28.47;18.20;;;;;;;-0.29;65.80;101381.19;1800880;79;21185;-62
2022/01/23 13:04:38;;;;;;;29.20;18.05;;;;;;;-0.13;65.75;101374.02;1797469;80;21204;-63
2022/01/23 13:14:10;;;;;;;29.12;17.15;;;;;;;-0.38;65.65;101369.59;1760961;81;21209;-63
2022/01/23 13:31:15;;;;;;;30.25;18.85;;;;;;;-0.91;67.36;101388.55;1760330;81;21770;-62
2022/01/23 13:34:44;;;;;;;34.43;20.32;;;;;;;-0.85;67.46;101383.31;1765743;80;21384;-62
2022/01/23 13:38:00;;;;;;;41.77;23.15;;;;;;;-1.05;67.32;101389.73;1760442;81;21324;-62
2022/01/23 13:41:10;;;;;;;41.58;24.10;;;;;;;-1.30;67.85;101399.10;1766286;81;21364;-63
2022/01/23 13:57:37;;;;;;;35.08;21.42;;;;;;;-2.09;69.29;101405.61;1798398;79;21702;-63
2022/01/23 13:57:52;;;;;;;33.92;20.10;;;;;;;-2.24;69.62;101403.66;1799593;78;21192;-62
2022/01/23 14:00:48;;;;;;;34.40;22.52;;;;;;;-2.36;70.09;101406.87;1804585;78;21205;-62
2022/01/23 14:03:58;;;;;;;39.50;23.15;;;;;;;-2.36;70.49;101406.87;1800027;79;21221;-63
2022/01/23 14:07:03;;;;;;;36.20;21.37;;;;;;;-2.36;70.63;101401.52;1779319;78;21771;-62
2022/01/23 14:10:43;;;;;;;38.45;24.45;;;;;;;-2.37;70.88;101399.78;1818205;78;21359;-63
2022/01/23 14:13:47;;;;;;;43.75;23.55;;;;;;;-2.32;71.19;101403.13;1760110;81;21387;-64
2022/01/23 14:16:58;;;;;;;46.42;28.02;;;;;;;-2.36;71.26;101406.87;1759559;81;21714;-63
2022/01/23 14:20:10;;;;;;;42.20;23.02;;;;;;;-2.41;71.63;101410.23;1764473;81;21363;-62
2022/01/23 14:23:25;;;;;;;44.90;24.72;;;;;;;-2.41;71.91;101410.23;1759834;81;21190;-63
2022/01/23 14:26:34;;;;;;;42.75;24.00;;;;;;;-2.45;72.04;101411.78;1764650;81;21173;-63
2022/01/23 14:29:59;;;;;;;42.35;23.83;;;;;;;-2.59;72.22;101431.17;1762882;79;21390;-62
2022/01/23 14:33:07;;;;;;;50.30;26.20;;;;;;;-2.67;72.47;101421.26;1760042;81;21336;-63
2022/01/23 14:36:32;;;;;;;42.30;22.98;;;;;;;-2.70;72.90;101438.81;1759837;81;21351;-64
2022/01/23 14:39:37;;;;;;;47.67;25.57;;;;;;;-2.71;73.11;101437.05;1760091;80;21265;-65
2022/01/23 14:42:45;;;;;;;49.03;25.65;;;;;;;-2.74;73.12;101441.69;1760057;81;21419;-63
2022/01/23 14:45:54;;;;;;;44.53;23.80;;;;;;;-2.72;73.43;101447.37;1730139;83;21789;-64
2022/01/23 14:49:01;;;;;;;47.88;27.73;;;;;;;-2.62;73.52;101447.39;1729217;83;21217;-62
2022/01/23 14:52:13;;;;;;;42.17;24.65;;;;;;;-2.67;73.17;101454.75;1728503;82;21865;-64
2022/01/23 14:55:16;;;;;;;43.92;24.18;;;;;;;-2.73;73.13;101463.52;1730051;83;21927;-64
2022/01/23 14:58:23;;;;;;;42.78;24.18;;;;;;;-2.71;73.37;101466.52;1730208;83;21346;-63
2022/01/23 15:01:30;;;;;;;43.38;22.82;;;;;;;-2.70;73.20;101474.98;1729842;83;21240;-64
2022/01/23 15:04:36;;;;;;;47.03;23.80;;;;;;;-2.73;73.18;101487.17;1729576;83;21291;-63
2022/01/23 15:07:43;;;;;;;41.75;23.47;;;;;;;-2.82;72.99;101483.52;1709107;83;21363;-62
2022/01/23 15:10:50;;;;;;;44.00;25.17;;;;;;;-2.97;73.04;101485.98;1729952;83;21339;-63
2022/01/23 15:13:57;;;;;;;51.30;29.07;;;;;;;-3.09;73.41;101494.05;1730142;83;21927;-64
2022/01/23 15:17:07;;;;;;;54.27;33.83;;;;;;;-3.16;73.69;101489.89;1729866;83;21341;-63
2022/01/23 15:20:16;;;;;;;52.43;29.07;;;;;;;-3.20;73.88;101501.64;1730167;83;21904;-63
2022/01/23 15:23:22;;;;;;;52.62;29.72;;;;;;;-3.24;74.03;101506.28;1730437;83;21217;-63
2022/01/23 15:26:27;;;;;;;54.98;29.45;;;;;;;-3.27;74.31;101505.03;1730244;83;21354;-63
2022/01/23 15:29:33;;;;;;;50.88;29.02;;;;;;;-3.17;74.41;101511.77;1730357;83;21419;-62
2022/01/23 15:32:38;;;;;;;49.20;26.40;;;;;;;-3.08;74.40;101513.21;1730881;83;21331;-63
2022/01/23 15:35:49;;;;;;;42.13;23.52;;;;;;;-3.01;74.24;101512.02;1760122;81;21208;-62
2022/01/23 15:38:56;;;;;;;50.95;26.12;;;;;;;-3.02;74.08;101513.41;1765905;81;21375;-63
2022/01/23 15:42:04;;;;;;;44.80;24.18;;;;;;;-3.08;74.01;101510.53;1760430;81;21865;-63
2022/01/23 15:45:09;;;;;;;46.28;25.60;;;;;;;-3.21;74.07;101517.31;1764898;81;21350;-63
2022/01/23 15:48:15;;;;;;;43.23;21.27;;;;;;;-3.25;74.33;101515.22;1760390;81;21331;-63
2022/01/23 15:51:20;;;;;;;40.30;23.35;;;;;;;-3.26;74.51;101519.30;1765860;81;21320;-63
2022/01/23 15:54:29;;;;;;;35.20;20.15;;;;;;;-3.27;74.69;101518.42;1761478;78;21185;-62
2022/01/23 15:57:36;;;;;;;39.45;22.42;;;;;;;-3.27;74.73;101517.56;1737367;81;21499;-62
2022/01/23 16:00:42;;;;;;;41.05;21.77;;;;;;;-3.30;74.89;101533.75;1737111;82;21379;-62
2022/01/23 16:03:51;;;;;;;39.90;21.33;;;;;;;-3.29;74.87;101524.33;1737341;82;21249;-62
2022/01/23 16:06:59;;;;;;;38.38;21.75;;;;;;;-3.34;74.88;101533.00;1728057;82;21841;-62
2022/01/23 16:10:06;;;;;;;42.38;22.67;;;;;;;-3.34;74.99;101539.69;1743451;82;22237;-62
2022/01/23 16:13:14;;;;;;;32.85;17.95;;;;;;;-3.35;75.17;101530.38;1740785;81;21253;-62
2022/01/23 16:16:20;;;;;;;36.33;19.70;;;;;;;-3.37;75.18;101528.22;1742331;82;21327;-61
2022/01/23 16:19:26;;;;;;;43.23;22.80;;;;;;;-3.42;75.29;101531.54;1734436;82;21472;-62
2022/01/23 16:22:33;;;;;;;40.85;22.62;;;;;;;-3.47;75.39;101526.83;1798256;80;21212;-63
2022/01/23 16:25:41;;;;;;;41.58;21.95;;;;;;;-3.48;75.55;101534.46;1799139;79;21662;-63
2022/01/23 16:28:46;;;;;;;31.00;18.48;;;;;;;-3.44;75.68;101544.13;1798379;79;21322;-63
2022/01/23 16:31:59;;;;;;;32.65;19.95;;;;;;;-3.44;75.66;101542.80;1798382;80;21303;-62
2022/01/23 16:35:04;;;;;;;41.63;21.77;;;;;;;-3.46;75.65;101556.70;1782582;79;21334;-62
2022/01/23 16:38:13;;;;;;;37.55;22.73;;;;;;;-3.50;75.66;101549.70;1799369;79;21145;-62
2022/01/23 16:41:19;;;;;;;43.00;23.20;;;;;;;-3.51;75.74;101558.67;1799034;79;21717;-63
2022/01/23 16:44:24;;;;;;;42.13;22.75;;;;;;;-3.53;75.79;101564.53;1799015;79;21176;-62
2022/01/23 16:47:32;;;;;;;40.35;23.32;;;;;;;-3.48;76.00;101567.91;1799093;79;21243;-64
2022/01/23 16:50:39;;;;;;;44.27;22.80;;;;;;;-3.44;75.86;101570.90;1798925;79;21700;-62
2022/01/23 16:53:44;;;;;;;30.88;17.67;;;;;;;-3.46;75.81;101571.41;1805998;78;21401;-61
2022/01/23 16:56:51;;;;;;;37.45;21.02;;;;;;;-3.47;75.80;101577.67;1798481;79;21869;-62
2022/01/23 16:59:59;;;;;;;37.75;21.65;;;;;;;-3.50;75.79;101588.05;1798882;79;21169;-62
2022/01/23 17:03:10;;;;;;;38.70;22.27;;;;;;;-3.56;75.85;101580.71;1798375;80;21697;-63
2022/01/23 17:06:17;;;;;;;38.53;20.52;;;;;;;-3.59;76.05;101583.50;1798669;80;21173;-62
2022/01/23 17:09:30;;;;;;;41.95;23.25;;;;;;;-3.56;76.25;101579.37;1798713;80;21254;-63
2022/01/23 17:12:37;;;;;;;41.10;23.22;;;;;;;-3.59;76.21;101599.11;1798922;79;21213;-62
2022/01/23 17:15:43;;;;;;;35.33;19.95;;;;;;;-3.59;76.36;101591.53;1811808;78;21157;-62
2022/01/23 17:18:50;;;;;;;38.78;22.07;;;;;;;-3.55;76.43;101605.22;1760315;81;21371;-63
2022/01/23 17:21:58;;;;;;;38.28;22.42;;;;;;;-3.54;76.42;101606.50;1818090;78;21706;-63
2022/01/23 17:25:09;;;;;;;44.95;24.30;;;;;;;-3.48;76.53;101610.73;1802265;79;21241;-62
2022/01/23 17:28:14;;;;;;;40.03;22.30;;;;;;;-3.44;76.36;101612.38;1801428;78;22196;-63
2022/01/23 17:31:25;;;;;;;37.20;20.68;;;;;;;-3.38;76.38;101602.77;1798158;79;21269;-62
2022/01/23 17:34:34;;;;;;;35.90;21.27;;;;;;;-3.31;76.30;101610.95;1798446;80;21351;-63
2022/01/23 17:37:43;;;;;;;50.25;25.40;;;;;;;-3.23;76.16;101611.53;1730390;83;21920;-62
2022/01/23 17:40:52;;;;;;;37.83;21.52;;;;;;;-3.24;75.83;101614.70;1798076;80;21193;-65
2022/01/23 17:43:58;;;;;;;44.00;22.58;;;;;;;-3.23;75.78;101613.76;1729990;83;21205;-62
2022/01/23 17:47:18;;;;;;;34.18;19.02;;;;;;;-3.23;75.64;101612.87;1798741;78;21331;-63